createdAt,value
2022-11-30T00:00:23.378Z,86.38
2022-11-30T00:01:25.138Z,86.72
2022-11-30T00:02:26.738Z,87.97
2022-11-30T00:03:28.384Z,90.62
2022-11-30T00:04:29.974Z,90.54
2022-11-30T00:05:31.599Z,91.09
2022-11-30T00:06:33.126Z,91.46
2022-11-30T00:07:34.768Z,90.52
2022-11-30T00:08:36.692Z,89.68
2022-11-30T00:09:38.284Z,89.68
2022-11-30T00:10:41.011Z,88.69
2022-11-30T00:11:42.516Z,88.78
2022-11-30T00:12:44.113Z,87.65
2022-11-30T00:13:45.703Z,87.90
2022-11-30T00:14:47.526Z,87.25
2022-11-30T00:15:49.194Z,87.16
2022-11-30T00:16:50.798Z,87.24
2022-11-30T00:17:57.072Z,87.01
2022-11-30T00:18:58.670Z,86.35
2022-11-30T00:20:00.182Z,86.23
2022-11-30T00:21:02.824Z,86.60
2022-11-30T00:22:04.385Z,87.75
2022-11-30T00:23:05.969Z,88.64
2022-11-30T00:24:07.711Z,88.32
2022-11-30T00:25:09.650Z,87.29
2022-11-30T00:26:14.142Z,87.19
2022-11-30T00:27:15.644Z,87.01
2022-11-30T00:28:17.338Z,87.24
2022-11-30T00:29:19.296Z,86.99
2022-11-30T00:30:20.876Z,87.31
2022-11-30T00:31:22.573Z,87.31
2022-11-30T00:32:24.986Z,87.38
2022-11-30T00:33:26.934Z,87.12
2022-11-30T00:34:28.593Z,86.70
2022-11-30T00:35:32.068Z,86.14
2022-11-30T00:36:33.778Z,86.14
2022-11-30T00:37:35.719Z,86.39
2022-11-30T00:38:37.561Z,86.53
2022-11-30T00:39:39.089Z,86.03
2022-11-30T00:40:40.620Z,86.37
2022-11-30T00:41:42.157Z,86.53
2022-11-30T00:42:43.717Z,86.54
2022-11-30T00:43:45.732Z,85.95
2022-11-30T00:44:47.471Z,85.99
2022-11-30T00:45:49.340Z,86.10
2022-11-30T00:46:50.878Z,85.61
2022-11-30T00:47:52.391Z,85.87
2022-11-30T00:48:53.976Z,85.45
2022-11-30T00:49:55.487Z,85.98
2022-11-30T00:50:57.092Z,86.23
2022-11-30T00:51:58.595Z,86.58
2022-11-30T00:53:00.152Z,87.14
2022-11-30T00:54:01.721Z,86.72
2022-11-30T00:55:04.445Z,86.60
2022-11-30T00:56:07.550Z,87.20
2022-11-30T00:57:09.073Z,86.91
2022-11-30T00:58:11.146Z,86.84
2022-11-30T00:59:12.707Z,87.78
2022-11-30T01:00:14.609Z,88.82
2022-11-30T01:01:16.220Z,89.83
2022-11-30T01:02:17.893Z,89.97
2022-11-30T01:03:19.427Z,90.33
2022-11-30T01:04:21.365Z,89.61
2022-11-30T01:05:22.951Z,89.05
2022-11-30T01:06:24.853Z,88.73
2022-11-30T01:07:26.475Z,88.90
2022-11-30T01:08:28.058Z,88.67
2022-11-30T01:09:29.579Z,88.22
2022-11-30T01:10:33.288Z,88.14
2022-11-30T01:11:34.907Z,87.95
2022-11-30T01:12:36.473Z,87.65
2022-11-30T01:13:38.139Z,87.71
2022-11-30T01:14:39.705Z,87.73
2022-11-30T01:15:43.795Z,88.38
2022-11-30T01:16:45.508Z,89.09
2022-11-30T01:17:47.157Z,89.96
2022-11-30T01:18:49.314Z,90.45
2022-11-30T01:19:50.868Z,90.19
2022-11-30T01:20:52.482Z,90.63
2022-11-30T01:21:54.040Z,90.32
2022-11-30T01:22:55.909Z,89.62
2022-11-30T01:23:57.513Z,89.16
2022-11-30T01:24:59.113Z,89.01
2022-11-30T01:26:00.734Z,88.77
2022-11-30T01:27:02.296Z,88.87
2022-11-30T01:28:03.975Z,88.66
2022-11-30T01:29:05.555Z,88.21
2022-11-30T01:30:07.812Z,88.39
2022-11-30T01:31:11.184Z,88.72
2022-11-30T01:32:12.857Z,88.89
2022-11-30T01:33:14.423Z,88.77
2022-11-30T01:34:15.931Z,88.41
2022-11-30T01:35:17.468Z,88.66
2022-11-30T01:36:21.989Z,88.04
2022-11-30T01:37:23.490Z,88.22
2022-11-30T01:38:25.055Z,88.84
2022-11-30T01:39:26.586Z,89.47
2022-11-30T01:40:28.146Z,90.66
2022-11-30T01:41:32.190Z,91.21
2022-11-30T01:42:33.913Z,90.92
2022-11-30T01:44:04.639Z,91.87
2022-11-30T01:45:07.390Z,91.41
2022-11-30T01:46:51.023Z,91.57
2022-11-30T01:47:56.759Z,91.34
2022-11-30T01:49:05.147Z,91.93
2022-11-30T01:50:13.572Z,91.58
2022-11-30T01:51:15.306Z,92.04
2022-11-30T01:52:25.358Z,92.27
2022-11-30T01:53:27.008Z,92.39
2022-11-30T01:54:35.071Z,92.22
2022-11-30T01:55:43.238Z,91.56
2022-11-30T01:57:11.062Z,90.94
2022-11-30T01:58:16.592Z,90.52
2022-11-30T01:59:21.890Z,90.56
2022-11-30T02:00:24.132Z,90.81
2022-11-30T02:01:25.947Z,90.27
2022-11-30T02:02:53.750Z,90.48
2022-11-30T02:04:13.748Z,91.09
2022-11-30T02:05:17.417Z,91.86
2022-11-30T02:06:19.143Z,92.32
2022-11-30T02:07:21.194Z,92.59
2022-11-30T02:08:23.270Z,92.62
2022-11-30T02:09:27.024Z,91.44
2022-11-30T02:10:32.221Z,92.09
2022-11-30T02:11:33.860Z,91.71
2022-11-30T02:12:57.274Z,90.95
2022-11-30T02:14:21.518Z,90.97
2022-11-30T02:15:29.767Z,90.27
2022-11-30T02:16:43.560Z,90.31
2022-11-30T02:17:53.753Z,90.67
2022-11-30T02:19:13.685Z,90.35
2022-11-30T02:20:27.018Z,90.36
2022-11-30T02:22:09.899Z,89.88
2022-11-30T02:23:43.042Z,88.69
2022-11-30T02:25:07.321Z,88.58
2022-11-30T02:26:29.087Z,88.45
2022-11-30T02:27:45.573Z,88.82
2022-11-30T02:29:05.199Z,88.68
2022-11-30T02:30:25.367Z,89.10
2022-11-30T02:31:54.818Z,88.49
2022-11-30T02:32:59.093Z,88.35
2022-11-30T02:34:03.317Z,89.12
2022-11-30T02:35:07.799Z,89.65
2022-11-30T02:36:10.116Z,90.03
2022-11-30T02:37:14.533Z,89.79
2022-11-30T02:38:20.114Z,89.55
2022-11-30T02:39:22.502Z,90.79
2022-11-30T02:40:24.561Z,91.18
2022-11-30T02:41:26.076Z,91.96
2022-11-30T02:42:27.731Z,92.47
2022-11-30T02:43:31.703Z,93.15
2022-11-30T02:44:33.609Z,92.94
2022-11-30T02:45:44.930Z,92.80
2022-11-30T02:47:12.674Z,93.77
2022-11-30T02:48:18.501Z,93.64
2022-11-30T02:49:29.260Z,93.99
2022-11-30T02:50:39.883Z,94.21
2022-11-30T02:51:42.315Z,94.31
2022-11-30T02:52:44.738Z,94.65
2022-11-30T02:53:47.780Z,94.90
2022-11-30T02:54:49.726Z,94.85
2022-11-30T02:55:53.041Z,94.37
2022-11-30T02:56:54.564Z,94.53
2022-11-30T02:57:56.086Z,94.45
2022-11-30T02:58:57.747Z,94.30
2022-11-30T03:00:01.873Z,94.05
2022-11-30T03:01:03.440Z,94.02
2022-11-30T03:02:04.971Z,94.14
2022-11-30T03:03:06.563Z,94.30
2022-11-30T03:04:08.479Z,93.56
2022-11-30T03:05:10.351Z,93.41
2022-11-30T03:06:11.904Z,93.23
2022-11-30T03:07:13.551Z,93.01
2022-11-30T03:08:15.066Z,92.75
2022-11-30T03:09:16.571Z,92.44
2022-11-30T03:10:18.281Z,92.03
2022-11-30T03:11:19.800Z,91.36
2022-11-30T03:12:21.765Z,90.79
2022-11-30T03:13:23.308Z,91.44
2022-11-30T03:14:24.901Z,91.05
2022-11-30T03:15:27.087Z,90.92
2022-11-30T03:16:28.785Z,91.00
2022-11-30T03:17:30.363Z,90.26
2022-11-30T03:18:32.490Z,90.44
2022-11-30T03:19:34.694Z,90.09
2022-11-30T03:20:41.154Z,90.78
2022-11-30T03:21:42.718Z,91.39
2022-11-30T03:22:44.468Z,91.16
2022-11-30T03:23:46.015Z,91.49
2022-11-30T03:24:47.909Z,91.01
2022-11-30T03:25:52.278Z,90.92
2022-11-30T03:26:53.823Z,90.92
2022-11-30T03:27:55.466Z,91.00
2022-11-30T03:28:57.007Z,90.92
2022-11-30T03:29:58.521Z,91.36
2022-11-30T03:31:00.389Z,91.31
2022-11-30T03:32:01.999Z,91.89
2022-11-30T03:33:03.536Z,92.76
2022-11-30T03:34:05.171Z,93.16
2022-11-30T03:35:07.122Z,91.79
2022-11-30T03:36:11.178Z,92.30
2022-11-30T03:37:12.871Z,91.91
2022-11-30T03:38:14.527Z,91.38
2022-11-30T03:39:16.101Z,91.36
2022-11-30T03:40:18.187Z,91.96
2022-11-30T03:41:19.941Z,91.33
2022-11-30T03:42:21.507Z,91.63
2022-11-30T03:43:23.068Z,91.35
2022-11-30T03:44:24.605Z,91.17
2022-11-30T03:45:26.139Z,90.69
2022-11-30T03:46:27.815Z,91.10
2022-11-30T03:47:29.390Z,90.71
2022-11-30T03:48:31.634Z,90.71
2022-11-30T03:49:33.237Z,90.54
2022-11-30T03:50:34.758Z,90.25
2022-11-30T03:51:36.418Z,90.46
2022-11-30T03:52:37.997Z,90.50
2022-11-30T03:53:40.218Z,89.94
2022-11-30T03:54:41.957Z,89.85
2022-11-30T03:55:43.628Z,89.51
2022-11-30T03:56:45.277Z,89.85
2022-11-30T03:57:46.851Z,90.43
2022-11-30T03:58:48.430Z,90.70
2022-11-30T03:59:50.061Z,90.30
2022-11-30T04:01:24.513Z,90.29
2022-11-30T04:02:26.157Z,90.46
2022-11-30T04:03:28.389Z,90.63
2022-11-30T04:04:30.053Z,91.96
2022-11-30T04:05:31.598Z,92.11
2022-11-30T04:06:33.325Z,92.09
2022-11-30T04:07:35.127Z,92.61
2022-11-30T04:08:37.882Z,93.61
2022-11-30T04:09:39.465Z,93.88
2022-11-30T04:10:41.005Z,93.11
2022-11-30T04:11:42.690Z,93.03
2022-11-30T04:12:44.295Z,93.69
2022-11-30T04:13:45.914Z,94.55
2022-11-30T04:14:47.574Z,93.97
2022-11-30T04:15:51.293Z,93.98
2022-11-30T04:16:52.846Z,94.82
2022-11-30T04:17:54.439Z,94.31
2022-11-30T04:18:55.932Z,93.27
2022-11-30T04:19:57.493Z,93.10
2022-11-30T04:21:00.200Z,93.21
2022-11-30T04:22:01.711Z,93.83
2022-11-30T04:23:03.308Z,94.31
2022-11-30T04:24:05.207Z,94.64
2022-11-30T04:25:07.893Z,94.71
2022-11-30T04:26:13.231Z,95.01
2022-11-30T04:27:14.789Z,94.90
2022-11-30T04:28:17.015Z,94.64
2022-11-30T04:29:18.640Z,94.71
2022-11-30T04:30:20.254Z,95.38
2022-11-30T04:31:21.790Z,95.19
2022-11-30T04:32:23.355Z,94.41
2022-11-30T04:33:24.903Z,94.37
2022-11-30T04:34:28.555Z,94.31
2022-11-30T04:35:30.133Z,94.16
2022-11-30T04:36:31.691Z,94.37
2022-11-30T04:37:33.455Z,94.53
2022-11-30T04:38:36.832Z,95.33
2022-11-30T04:39:38.430Z,94.97
2022-11-30T04:40:43.986Z,94.81
2022-11-30T04:41:45.556Z,93.81
2022-11-30T04:42:47.502Z,93.26
2022-11-30T04:43:49.191Z,92.77
2022-11-30T04:44:50.726Z,92.05
2022-11-30T04:45:52.330Z,91.19
2022-11-30T04:46:54.029Z,91.04
2022-11-30T04:47:55.628Z,91.20
2022-11-30T04:48:57.143Z,91.60
2022-11-30T04:49:58.719Z,91.51
2022-11-30T04:51:08.881Z,91.81
2022-11-30T04:52:10.661Z,92.03
2022-11-30T04:53:12.586Z,91.64
2022-11-30T04:54:14.310Z,91.10
2022-11-30T04:55:19.341Z,91.37
2022-11-30T04:56:20.892Z,90.91
2022-11-30T04:57:23.894Z,90.81
2022-11-30T04:58:25.477Z,90.84
2022-11-30T04:59:27.054Z,90.16
2022-11-30T05:00:28.610Z,90.11
2022-11-30T05:01:30.243Z,89.29
2022-11-30T05:02:31.814Z,89.75
2022-11-30T05:03:33.363Z,89.13
2022-11-30T05:04:35.009Z,88.43
2022-11-30T05:05:36.624Z,88.94
2022-11-30T05:06:38.203Z,88.73
2022-11-30T05:07:40.681Z,88.44
2022-11-30T05:08:42.190Z,87.63
2022-11-30T05:09:43.880Z,88.06
2022-11-30T05:10:50.147Z,89.25
2022-11-30T05:11:54.385Z,89.47
2022-11-30T05:12:57.356Z,90.48
2022-11-30T05:13:58.974Z,90.50
2022-11-30T05:15:00.533Z,91.66
2022-11-30T05:16:02.127Z,92.04
2022-11-30T05:17:03.919Z,92.02
2022-11-30T05:18:05.506Z,92.06
2022-11-30T05:19:07.056Z,91.10
2022-11-30T05:20:08.983Z,92.18
2022-11-30T05:21:11.340Z,92.33
2022-11-30T05:22:13.006Z,91.14
2022-11-30T05:23:14.588Z,90.86
2022-11-30T05:24:16.319Z,91.69
2022-11-30T05:25:17.928Z,92.32
2022-11-30T05:26:19.516Z,92.22
2022-11-30T05:27:22.728Z,92.62
2022-11-30T05:28:24.639Z,92.87
2022-11-30T05:29:26.319Z,91.98
2022-11-30T05:30:30.357Z,92.28
2022-11-30T05:31:32.914Z,91.68
2022-11-30T05:32:35.286Z,91.38
2022-11-30T05:33:36.799Z,91.40
2022-11-30T05:34:49.988Z,91.59
2022-11-30T05:35:53.025Z,91.74
2022-11-30T05:36:54.647Z,92.22
2022-11-30T05:37:56.238Z,92.58
2022-11-30T05:38:57.763Z,92.07
2022-11-30T05:39:59.320Z,91.74
2022-11-30T05:41:02.252Z,91.94
2022-11-30T05:42:03.859Z,90.51
2022-11-30T05:43:06.193Z,91.46
2022-11-30T05:44:08.921Z,90.73
2022-11-30T05:45:11.073Z,90.61
2022-11-30T05:46:12.826Z,90.39
2022-11-30T05:47:14.516Z,90.08
2022-11-30T05:48:16.115Z,89.40
2022-11-30T05:49:17.669Z,89.28
2022-11-30T05:50:20.111Z,89.45
2022-11-30T05:51:22.570Z,89.42
2022-11-30T05:52:24.137Z,88.95
2022-11-30T05:53:26.192Z,89.30
2022-11-30T05:54:31.349Z,89.21
2022-11-30T05:55:33.567Z,89.15
2022-11-30T05:56:35.198Z,89.43
2022-11-30T05:57:38.381Z,89.83
2022-11-30T05:58:40.494Z,89.60
2022-11-30T05:59:42.085Z,89.66
2022-11-30T06:00:43.721Z,90.22
2022-11-30T06:01:45.395Z,90.61
2022-11-30T06:02:47.202Z,90.41
2022-11-30T06:03:49.603Z,90.26
2022-11-30T06:04:51.157Z,89.86
2022-11-30T06:05:52.783Z,89.73
2022-11-30T06:06:57.512Z,90.48
2022-11-30T06:07:59.701Z,90.18
2022-11-30T06:09:01.316Z,89.84
2022-11-30T06:10:02.964Z,89.80
2022-11-30T06:11:04.659Z,89.54
2022-11-30T06:12:06.474Z,89.38
2022-11-30T06:13:09.757Z,89.64
2022-11-30T06:14:11.331Z,89.70
2022-11-30T06:15:12.870Z,89.79
2022-11-30T06:16:14.563Z,89.92
2022-11-30T06:17:16.810Z,89.67
2022-11-30T06:18:18.338Z,89.10
2022-11-30T06:19:19.906Z,89.51
2022-11-30T06:20:21.428Z,89.83
2022-11-30T06:21:24.845Z,90.41
2022-11-30T06:22:26.746Z,91.31
2022-11-30T06:23:28.788Z,91.68
2022-11-30T06:24:30.314Z,92.19
2022-11-30T06:25:32.121Z,91.95
2022-11-30T06:26:33.632Z,91.34
2022-11-30T06:27:35.194Z,91.27
2022-11-30T06:28:37.106Z,90.89
2022-11-30T06:29:38.730Z,91.00
2022-11-30T06:30:40.239Z,90.55
2022-11-30T06:31:41.955Z,90.36
2022-11-30T06:32:48.484Z,90.77
2022-11-30T06:33:50.039Z,90.31
2022-11-30T06:34:51.647Z,90.94
2022-11-30T06:35:53.298Z,91.30
2022-11-30T06:36:57.801Z,91.66
2022-11-30T06:38:00.669Z,91.95
2022-11-30T06:39:02.515Z,92.14
2022-11-30T06:40:06.910Z,92.00
2022-11-30T06:41:10.467Z,92.76
2022-11-30T06:42:11.967Z,92.49
2022-11-30T06:43:13.616Z,92.55
2022-11-30T06:44:15.189Z,92.30
2022-11-30T06:45:16.774Z,91.61
2022-11-30T06:46:18.487Z,91.51
2022-11-30T06:47:20.091Z,91.83
2022-11-30T06:48:23.101Z,91.27
2022-11-30T06:49:24.672Z,91.05
2022-11-30T06:50:26.292Z,91.06
2022-11-30T06:51:27.848Z,90.91
2022-11-30T06:52:32.772Z,91.10
2022-11-30T06:53:34.719Z,90.64
2022-11-30T06:54:36.245Z,90.47
2022-11-30T06:55:38.415Z,90.46
2022-11-30T06:56:39.943Z,90.27
2022-11-30T06:57:41.667Z,90.21
2022-11-30T06:58:43.256Z,90.51
2022-11-30T06:59:44.837Z,90.49
2022-11-30T07:00:46.444Z,90.78
2022-11-30T07:01:48.345Z,90.95
2022-11-30T07:02:49.880Z,90.73
2022-11-30T07:03:51.523Z,89.99
2022-11-30T07:04:53.170Z,90.21
2022-11-30T07:05:54.715Z,89.62
2022-11-30T07:06:56.571Z,89.74
2022-11-30T07:07:58.165Z,89.15
2022-11-30T07:08:59.748Z,88.95
2022-11-30T07:10:01.320Z,88.02
2022-11-30T07:11:03.054Z,87.60
2022-11-30T07:12:05.065Z,86.90
2022-11-30T07:13:10.506Z,86.91
2022-11-30T07:14:12.077Z,87.44
2022-11-30T07:15:13.678Z,87.59
2022-11-30T07:16:15.283Z,87.66
2022-11-30T07:17:16.846Z,87.91
2022-11-30T07:18:18.365Z,87.61
2022-11-30T07:19:19.919Z,86.87
2022-11-30T07:20:21.420Z,86.73
2022-11-30T07:21:23.140Z,86.79
2022-11-30T07:22:24.677Z,86.16
2022-11-30T07:23:44.623Z,84.97
2022-11-30T07:25:04.597Z,85.18
2022-11-30T07:26:07.520Z,83.51
2022-11-30T07:27:09.081Z,83.57
2022-11-30T07:28:10.587Z,83.29
2022-11-30T07:29:12.135Z,83.67
2022-11-30T07:30:13.983Z,83.25
2022-11-30T07:31:34.337Z,83.80
2022-11-30T07:32:35.956Z,84.45
2022-11-30T07:33:37.819Z,85.25
2022-11-30T07:34:39.428Z,85.23
2022-11-30T07:35:40.978Z,85.96
2022-11-30T07:36:42.494Z,86.24
2022-11-30T07:37:44.044Z,86.00
2022-11-30T07:38:45.935Z,86.38
2022-11-30T07:39:47.458Z,86.44
2022-11-30T07:40:49.009Z,86.95
2022-11-30T07:41:50.822Z,86.23
2022-11-30T07:42:55.778Z,86.60
2022-11-30T07:43:57.440Z,86.36
2022-11-30T07:44:59.557Z,86.57
2022-11-30T07:46:01.747Z,86.06
2022-11-30T07:47:03.419Z,86.44
2022-11-30T07:48:04.979Z,85.57
2022-11-30T07:49:07.855Z,85.64
2022-11-30T07:50:09.902Z,85.09
2022-11-30T07:51:20.648Z,85.39
2022-11-30T07:52:22.175Z,86.06
2022-11-30T07:53:23.858Z,85.85
2022-11-30T07:54:25.437Z,85.48
2022-11-30T07:55:27.037Z,85.86
2022-11-30T07:56:29.541Z,86.73
2022-11-30T07:57:31.085Z,85.71
2022-11-30T07:58:33.356Z,85.05
2022-11-30T07:59:34.902Z,85.17
2022-11-30T08:00:39.903Z,84.73
2022-11-30T08:01:41.586Z,84.86
2022-11-30T08:02:43.143Z,84.98
2022-11-30T08:03:45.280Z,84.39
2022-11-30T08:04:47.060Z,84.79
2022-11-30T08:05:49.079Z,84.58
2022-11-30T08:06:50.680Z,84.90
2022-11-30T08:07:53.722Z,84.25
2022-11-30T08:08:58.451Z,84.20
2022-11-30T08:09:59.938Z,84.39
2022-11-30T08:11:02.189Z,84.93
2022-11-30T08:12:03.952Z,85.61
2022-11-30T08:13:05.474Z,85.65
2022-11-30T08:14:07.038Z,85.95
2022-11-30T08:15:19.803Z,86.61
2022-11-30T08:16:24.702Z,87.93
2022-11-30T08:17:26.281Z,87.57
2022-11-30T08:18:27.952Z,88.79
2022-11-30T08:19:29.475Z,88.73
2022-11-30T08:20:31.065Z,88.90
2022-11-30T08:21:32.674Z,89.14
2022-11-30T08:22:34.722Z,89.29
2022-11-30T08:23:41.200Z,89.25
2022-11-30T08:24:42.972Z,88.26
2022-11-30T08:25:44.511Z,87.92
2022-11-30T08:26:46.002Z,88.58
2022-11-30T08:27:47.559Z,88.40
2022-11-30T08:28:51.097Z,88.62
2022-11-30T08:29:52.650Z,87.57
2022-11-30T08:30:54.193Z,87.06
2022-11-30T08:31:55.730Z,86.86
2022-11-30T08:32:57.352Z,86.01
2022-11-30T08:34:01.278Z,86.55
2022-11-30T08:35:02.982Z,85.79
2022-11-30T08:36:11.777Z,84.78
2022-11-30T08:37:13.344Z,84.34
2022-11-30T08:38:14.871Z,84.73
2022-11-30T08:39:16.401Z,84.48
2022-11-30T08:40:18.075Z,84.73
2022-11-30T08:41:21.781Z,83.96
2022-11-30T08:42:23.363Z,83.67
2022-11-30T08:43:24.883Z,83.92
2022-11-30T08:44:27.709Z,85.19
2022-11-30T08:45:29.262Z,85.87
2022-11-30T08:47:54.556Z,84.72
2022-11-30T08:49:13.095Z,85.00
2022-11-30T08:50:17.738Z,84.52
2022-11-30T08:51:20.859Z,84.29
2022-11-30T08:52:22.372Z,84.07
2022-11-30T08:53:23.889Z,84.10
2022-11-30T08:54:27.370Z,84.53
2022-11-30T08:55:28.943Z,84.78
2022-11-30T08:56:30.623Z,83.84
2022-11-30T08:57:32.237Z,84.43
2022-11-30T08:58:35.972Z,85.73
2022-11-30T08:59:37.834Z,86.16
2022-11-30T09:00:39.402Z,86.93
2022-11-30T09:01:42.697Z,86.45
2022-11-30T09:02:44.333Z,86.67
2022-11-30T09:03:47.635Z,87.51
2022-11-30T09:04:51.085Z,87.04
2022-11-30T09:05:52.688Z,85.85
2022-11-30T09:06:58.972Z,86.52
2022-11-30T09:08:00.867Z,86.75
2022-11-30T09:09:02.692Z,87.68
2022-11-30T09:10:04.569Z,87.54
2022-11-30T09:11:15.035Z,87.98
2022-11-30T09:12:16.736Z,88.39
2022-11-30T09:13:18.304Z,88.41
2022-11-30T09:14:19.878Z,88.63
2022-11-30T09:15:21.434Z,88.70
2022-11-30T09:16:24.172Z,88.17
2022-11-30T09:17:26.195Z,88.86
2022-11-30T09:18:27.750Z,88.08
2022-11-30T09:19:29.454Z,87.87
2022-11-30T09:20:31.039Z,87.41
2022-11-30T09:21:32.594Z,86.15
2022-11-30T09:22:34.150Z,85.43
2022-11-30T09:23:36.848Z,85.57
2022-11-30T09:24:38.444Z,84.97
2022-11-30T09:25:40.212Z,85.61
2022-11-30T09:26:41.773Z,86.53
2022-11-30T09:27:43.333Z,85.47
2022-11-30T09:28:46.260Z,86.12
2022-11-30T09:29:47.782Z,85.16
2022-11-30T09:30:49.415Z,85.80
2022-11-30T09:31:50.947Z,85.57
2022-11-30T09:32:52.469Z,85.57
2022-11-30T09:33:56.616Z,85.35
2022-11-30T09:34:58.139Z,85.38
2022-11-30T09:36:02.692Z,85.81
2022-11-30T09:37:04.254Z,84.94
2022-11-30T09:38:05.762Z,85.09
2022-11-30T09:39:12.842Z,84.67
2022-11-30T09:40:15.922Z,84.88
2022-11-30T09:41:47.705Z,85.82
2022-11-30T09:43:09.199Z,86.13
2022-11-30T09:44:21.002Z,85.44
2022-11-30T09:45:30.351Z,85.16
2022-11-30T09:46:52.526Z,85.56
2022-11-30T09:48:13.826Z,85.47
2022-11-30T09:49:34.970Z,86.23
2022-11-30T09:50:45.041Z,86.27
2022-11-30T09:51:48.546Z,86.89
2022-11-30T09:52:54.721Z,86.82
2022-11-30T09:54:02.686Z,87.00
2022-11-30T09:55:09.511Z,87.97
2022-11-30T09:56:30.305Z,87.81
2022-11-30T09:57:31.877Z,87.37
2022-11-30T09:58:50.765Z,86.89
2022-11-30T09:59:56.905Z,87.70
2022-11-30T10:01:02.478Z,86.92
2022-11-30T10:02:17.333Z,86.79
2022-11-30T10:03:22.030Z,86.06
2022-11-30T10:04:26.923Z,85.43
2022-11-30T10:05:39.160Z,84.94
2022-11-30T10:06:54.939Z,85.10
2022-11-30T10:08:20.635Z,85.45
2022-11-30T10:09:27.951Z,85.93
2022-11-30T10:10:33.336Z,84.94
2022-11-30T10:11:55.124Z,85.11
2022-11-30T10:13:29.034Z,84.80
2022-11-30T10:14:53.900Z,83.40
2022-11-30T10:16:13.927Z,84.43
2022-11-30T10:17:21.423Z,84.40
2022-11-30T10:18:22.931Z,84.23
2022-11-30T10:19:39.642Z,84.50
2022-11-30T10:20:55.190Z,83.95
2022-11-30T10:22:07.945Z,84.48
2022-11-30T10:23:21.858Z,84.79
2022-11-30T10:24:57.029Z,83.15
2022-11-30T10:26:14.917Z,83.07
2022-11-30T10:27:33.512Z,84.47
2022-11-30T10:28:51.029Z,83.84
2022-11-30T10:29:55.389Z,84.32
2022-11-30T10:30:57.318Z,83.36
2022-11-30T10:32:00.895Z,83.64
2022-11-30T10:33:13.739Z,84.97
2022-11-30T10:34:23.598Z,84.63
2022-11-30T10:35:48.895Z,84.36
2022-11-30T10:37:13.030Z,84.20
2022-11-30T10:38:20.086Z,85.10
2022-11-30T10:39:34.678Z,84.17
2022-11-30T10:40:50.965Z,83.20
2022-11-30T10:42:15.137Z,82.91
2022-11-30T10:43:34.614Z,82.73
2022-11-30T10:44:40.696Z,83.79
2022-11-30T10:45:48.543Z,83.44
2022-11-30T10:47:02.981Z,83.81
2022-11-30T10:48:16.959Z,84.28
2022-11-30T10:49:19.682Z,82.87
2022-11-30T10:50:25.703Z,83.96
2022-11-30T10:51:27.864Z,83.92
2022-11-30T10:52:34.778Z,83.39
2022-11-30T10:53:37.142Z,83.18
2022-11-30T10:54:38.736Z,82.58
2022-11-30T10:55:44.446Z,82.98
2022-11-30T10:56:46.648Z,83.05
2022-11-30T10:57:51.100Z,81.82
2022-11-30T10:59:03.146Z,81.41
2022-11-30T11:00:06.822Z,82.32
2022-11-30T11:01:11.209Z,82.14
2022-11-30T11:02:40.972Z,83.55
2022-11-30T11:03:42.701Z,83.54
2022-11-30T11:04:44.321Z,83.64
2022-11-30T11:05:46.434Z,82.96
2022-11-30T11:06:55.332Z,83.55
2022-11-30T11:08:06.314Z,81.16
2022-11-30T11:09:29.907Z,82.61
2022-11-30T11:10:31.435Z,82.63
2022-11-30T11:11:37.263Z,82.00
2022-11-30T11:12:39.400Z,81.12
2022-11-30T11:13:43.601Z,80.45
2022-11-30T11:14:45.629Z,79.41
2022-11-30T11:16:01.051Z,81.04
2022-11-30T11:17:06.022Z,79.63
2022-11-30T11:18:16.640Z,79.07
2022-11-30T11:19:41.932Z,79.30
2022-11-30T11:20:45.158Z,78.66
2022-11-30T11:21:50.463Z,78.11
2022-11-30T11:22:52.038Z,76.53
2022-11-30T11:23:55.558Z,77.21
2022-11-30T11:25:23.412Z,76.28
2022-11-30T11:26:27.384Z,77.33
2022-11-30T11:27:32.508Z,76.91
2022-11-30T11:28:43.419Z,76.30
2022-11-30T11:29:45.338Z,77.73
2022-11-30T11:30:47.643Z,76.74
2022-11-30T11:31:50.146Z,76.43
2022-11-30T11:33:02.237Z,76.62
2022-11-30T11:34:05.838Z,77.53
2022-11-30T11:35:39.658Z,78.17
2022-11-30T11:36:41.709Z,78.06
2022-11-30T11:37:51.464Z,77.49
2022-11-30T11:38:53.073Z,77.30
2022-11-30T11:40:16.031Z,80.71
2022-11-30T11:41:31.672Z,76.01
2022-11-30T11:42:54.050Z,73.78
2022-11-30T11:43:58.147Z,73.71
2022-11-30T11:45:01.196Z,74.45
2022-11-30T11:46:13.146Z,74.43
2022-11-30T11:47:26.488Z,74.49
2022-11-30T11:48:30.243Z,74.91
2022-11-30T11:49:37.082Z,74.69
2022-11-30T11:52:04.000Z,75.92
2022-11-30T11:53:38.070Z,75.46
2022-11-30T11:54:58.813Z,74.42
2022-11-30T11:56:08.047Z,74.58
2022-11-30T11:57:15.992Z,75.45
2022-11-30T11:58:27.948Z,75.17
2022-11-30T12:00:15.597Z,75.98
2022-11-30T12:01:41.230Z,75.20
2022-11-30T12:03:11.444Z,75.53
2022-11-30T12:04:40.110Z,74.70
2022-11-30T12:05:50.308Z,75.14
2022-11-30T12:06:54.138Z,75.12
2022-11-30T12:08:16.972Z,75.43
2022-11-30T12:09:25.411Z,74.88
2022-11-30T12:10:52.544Z,74.93
2022-11-30T12:11:54.944Z,73.11
2022-11-30T12:12:58.280Z,73.72
2022-11-30T12:14:01.672Z,73.58
2022-11-30T12:15:03.666Z,73.73
2022-11-30T12:16:42.653Z,73.75
2022-11-30T12:18:03.029Z,74.43
2022-11-30T12:20:54.160Z,74.16
2022-11-30T12:22:29.797Z,73.93
2022-11-30T12:23:49.941Z,74.61
2022-11-30T12:25:20.970Z,74.84
2022-11-30T12:26:34.740Z,74.55
2022-11-30T12:27:38.913Z,74.12
2022-11-30T12:29:05.438Z,74.55
2022-11-30T12:30:10.073Z,74.69
2022-11-30T12:31:17.269Z,75.17
2022-11-30T12:33:10.604Z,75.49
2022-11-30T12:34:50.547Z,75.92
2022-11-30T12:36:02.203Z,75.12
2022-11-30T12:37:14.040Z,77.56
2022-11-30T12:38:31.935Z,76.14
2022-11-30T12:39:51.245Z,75.33
2022-11-30T12:40:58.495Z,75.97
2022-11-30T12:42:13.811Z,75.32
2022-11-30T12:43:31.116Z,75.42
2022-11-30T12:44:56.037Z,74.92
2022-11-30T12:46:28.324Z,75.78
2022-11-30T12:48:14.039Z,75.29
2022-11-30T12:49:27.723Z,76.63
2022-11-30T12:50:51.020Z,75.83
2022-11-30T12:51:58.625Z,75.68
2022-11-30T12:53:12.112Z,77.32
2022-11-30T12:54:52.278Z,76.21
2022-11-30T12:56:02.901Z,75.65
2022-11-30T12:57:20.550Z,77.04
2022-11-30T12:58:22.133Z,77.42
2022-11-30T12:59:48.872Z,76.97
2022-11-30T13:01:14.675Z,77.13
2022-11-30T13:02:46.152Z,77.68
2022-11-30T13:04:19.007Z,78.14
2022-11-30T13:05:46.207Z,77.67
2022-11-30T13:07:20.113Z,77.60
2022-11-30T13:08:27.023Z,77.82
2022-11-30T13:09:38.564Z,77.96
2022-11-30T13:10:46.027Z,79.12
2022-11-30T13:11:55.399Z,78.78
2022-11-30T13:13:00.273Z,77.85
2022-11-30T13:14:02.534Z,78.68
2022-11-30T13:15:18.409Z,78.19
2022-11-30T13:16:23.248Z,79.25
2022-11-30T13:17:26.764Z,79.43
2022-11-30T13:18:30.328Z,79.23
2022-11-30T13:19:55.819Z,79.61
2022-11-30T13:21:07.128Z,78.40
2022-11-30T13:22:29.120Z,77.78
2022-11-30T13:23:46.024Z,78.26
2022-11-30T13:24:55.610Z,78.68
2022-11-30T13:26:14.954Z,79.04
2022-11-30T13:27:44.842Z,79.03
2022-11-30T13:28:52.998Z,78.67
2022-11-30T13:30:04.151Z,78.93
2022-11-30T13:31:11.501Z,78.69
2022-11-30T13:32:48.629Z,79.06
2022-11-30T13:33:38.812Z,78.69
2022-11-30T13:34:40.405Z,79.22
2022-11-30T13:35:42.489Z,78.64
2022-11-30T13:36:45.602Z,78.80
2022-11-30T13:38:35.649Z,79.23
2022-11-30T13:39:55.757Z,80.04
2022-11-30T13:41:03.170Z,79.25
2022-11-30T13:42:07.621Z,80.11
2022-11-30T13:43:19.687Z,79.24
2022-11-30T13:44:25.893Z,79.15
2022-11-30T13:45:33.748Z,79.77
2022-11-30T13:46:35.428Z,78.72
2022-11-30T13:47:38.553Z,79.50
2022-11-30T13:48:42.932Z,79.48
2022-11-30T13:49:45.261Z,79.77
2022-11-30T13:50:48.976Z,79.39
2022-11-30T13:52:20.057Z,79.03
2022-11-30T13:53:23.153Z,80.06
2022-11-30T13:54:50.972Z,79.53
2022-11-30T13:55:57.148Z,79.01
2022-11-30T13:56:58.679Z,79.19
2022-11-30T13:58:00.136Z,79.14
2022-11-30T13:59:20.184Z,78.92
2022-11-30T14:00:30.957Z,78.32
2022-11-30T14:02:54.526Z,79.43
2022-11-30T14:04:14.472Z,79.56
2022-11-30T14:05:19.363Z,80.00
2022-11-30T14:06:39.115Z,80.52
2022-11-30T14:07:40.765Z,80.23
2022-11-30T14:08:42.338Z,80.55
2022-11-30T14:09:45.777Z,80.35
2022-11-30T14:10:54.646Z,80.25
2022-11-30T14:11:56.234Z,79.80
2022-11-30T14:13:03.421Z,80.42
2022-11-30T14:14:45.746Z,79.81
2022-11-30T14:15:47.867Z,80.26
2022-11-30T14:16:49.678Z,80.19
2022-11-30T14:17:57.053Z,80.69